Time;durP1;ratioP1;P1;durP2;ratioP2;P2;SDS_P1;SDS_P2;PMS_P1;PMS_P2;Temp;Humidity;BMP_temperature;BMP_pressure;BME280_temperature;BME280_humidity;BME280_pressure;Samples;Min_cycle;Max_cycle;Signal;HPM_P1;HPM_P2
2021/04/10 00:00:20;;;;;;;34.93;17.27;;;0.70;99.90;;;;;;4160448;28;20305;-63
2021/04/10 00:02:22;;;;;;;34.97;16.07;;;0.60;99.90;;;;;;4158950;28;20650;-71
2021/04/10 00:04:23;;;;;;;31.93;14.10;;;0.70;99.90;;;;;;4168096;28;20319;-64
2021/04/10 00:06:24;;;;;;;33.27;15.77;;;0.60;99.90;;;;;;4162609;28;20266;-65
2021/04/10 00:08:25;;;;;;;38.47;16.73;;;0.60;99.90;;;;;;4159279;28;20320;-64
2021/04/10 00:10:30;;;;;;;37.63;17.23;;;0.60;99.90;;;;;;4159156;28;20325;-63
2021/04/10 00:12:31;;;;;;;43.10;17.13;;;0.50;99.90;;;;;;4157819;28;20789;-62
2021/04/10 00:14:32;;;;;;;33.43;16.07;;;0.50;99.90;;;;;;4159586;28;20348;-64
2021/04/10 00:16:35;;;;;;;35.23;17.23;;;0.50;99.90;;;;;;4158793;28;20259;-64
2021/04/10 00:18:36;;;;;;;29.80;14.50;;;0.50;99.90;;;;;;4159962;28;20316;-64
2021/04/10 00:20:38;;;;;;;33.73;16.77;;;0.50;99.90;;;;;;4159126;28;20259;-64
2021/04/10 00:22:40;;;;;;;32.87;14.90;;;0.50;99.90;;;;;;4159894;28;20279;-65
2021/04/10 00:24:41;;;;;;;36.07;15.97;;;0.40;99.90;;;;;;4158381;28;20274;-63
2021/04/10 00:26:42;;;;;;;37.40;16.40;;;0.40;99.90;;;;;;4159819;28;20278;-63
2021/04/10 00:28:43;;;;;;;37.53;16.53;;;0.40;99.90;;;;;;4158599;28;21536;-65
2021/04/10 00:30:44;;;;;;;33.63;17.13;;;0.40;99.90;;;;;;4159645;28;20263;-64
2021/04/10 00:32:45;;;;;;;36.20;15.20;;;0.30;99.90;;;;;;4156760;28;20332;-67
2021/04/10 00:34:46;;;;;;;32.60;15.53;;;0.30;99.90;;;;;;4159630;28;20294;-65
2021/04/10 00:36:47;;;;;;;25.73;11.80;;;0.30;99.90;;;;;;4158332;28;20735;-66
2021/04/10 00:38:48;;;;;;;20.67;10.57;;;0.20;99.90;;;;;;4158984;28;20258;-65
2021/04/10 00:40:49;;;;;;;21.40;9.40;;;0.10;99.90;;;;;;4158623;28;20329;-63
2021/04/10 00:42:51;;;;;;;20.60;9.43;;;-0.10;99.90;;;;;;4158877;28;20669;-63
2021/04/10 00:44:52;;;;;;;21.10;10.50;;;-0.20;99.90;;;;;;4158919;28;20747;-68
2021/04/10 00:46:53;;;;;;;21.07;10.07;;;-0.30;99.90;;;;;;4158328;28;20271;-69
2021/04/10 00:48:54;;;;;;;20.27;9.83;;;-0.50;99.90;;;;;;4159744;28;20291;-63
2021/04/10 00:50:57;;;;;;;20.57;10.73;;;-0.60;99.90;;;;;;4158311;28;20745;-64
2021/04/10 00:52:58;;;;;;;19.33;9.13;;;-0.80;99.90;;;;;;4159328;28;20332;-62
2021/04/10 00:55:01;;;;;;;22.20;11.07;;;-0.90;99.90;;;;;;4158159;28;20848;-65
2021/04/10 00:57:03;;;;;;;22.43;10.23;;;-0.90;99.90;;;;;;4159289;28;20274;-63
2021/04/10 00:59:05;;;;;;;20.63;10.13;;;-0.90;99.90;;;;;;4158257;28;20337;-72
2021/04/10 01:01:06;;;;;;;20.50;10.37;;;-0.90;99.90;;;;;;4159718;28;20278;-67
2021/04/10 01:03:07;;;;;;;23.20;11.43;;;-0.90;99.90;;;;;;4158078;28;20828;-64
2021/04/10 01:05:09;;;;;;;22.67;11.93;;;-0.90;99.90;;;;;;4159364;28;20258;-69
2021/04/10 01:07:10;;;;;;;21.83;10.60;;;-0.90;99.90;;;;;;4157874;28;20283;-65
2021/04/10 01:09:12;;;;;;;25.33;11.83;;;-0.80;99.90;;;;;;4158820;28;20266;-65
2021/04/10 01:11:35;;;;;;;24.37;12.93;;;-0.80;99.90;;;;;;4158463;28;21417;-65
2021/04/10 01:14:02;;;;;;;28.40;13.60;;;-0.80;99.90;;;;;;4158580;28;20886;-70
2021/04/10 01:16:25;;;;;;;29.00;13.07;;;-0.80;99.90;;;;;;4157677;28;20313;-66
2021/04/10 01:18:32;;;;;;;27.57;13.07;;;-0.90;99.90;;;;;;4159119;28;20313;-68
2021/04/10 01:20:48;;;;;;;30.13;12.53;;;-0.90;99.90;;;;;;4157737;28;20328;-65
2021/04/10 01:23:13;;;;;;;32.87;13.60;;;-0.90;99.90;;;;;;4157937;28;20263;-65
2021/04/10 01:25:29;;;;;;;25.77;13.17;;;-0.90;99.90;;;;;;4157671;28;20267;-65
2021/04/10 01:27:37;;;;;;;30.37;14.43;;;-0.90;99.90;;;;;;4158568;28;20410;-68
2021/04/10 01:29:49;;;;;;;31.27;13.87;;;-0.90;99.90;;;;;;4157580;28;20675;-65
2021/04/10 01:31:54;;;;;;;26.80;13.80;;;-0.80;99.90;;;;;;4158453;28;20320;-64
2021/04/10 01:34:01;;;;;;;28.70;13.83;;;-0.80;99.90;;;;;;4155541;28;20711;-65
2021/04/10 01:36:04;;;;;;;33.60;15.67;;;-0.80;99.90;;;;;;4158277;28;20264;-66
2021/04/10 01:38:13;;;;;;;29.57;15.00;;;-0.80;99.90;;;;;;4157082;28;20301;-65
2021/04/10 01:40:15;;;;;;;32.13;14.47;;;-0.80;99.90;;;;;;4158856;28;20297;-62
2021/04/10 01:42:20;;;;;;;28.70;13.10;;;-0.80;99.90;;;;;;4157011;28;20255;-63
2021/04/10 01:44:22;;;;;;;33.23;14.50;;;-0.70;99.90;;;;;;4158586;28;20301;-63
2021/04/10 01:46:25;;;;;;;35.63;15.10;;;-0.70;99.90;;;;;;4157720;28;20267;-63
2021/04/10 01:48:27;;;;;;;26.17;13.23;;;-0.60;99.90;;;;;;4158502;28;20278;-63
2021/04/10 01:50:29;;;;;;;31.40;13.90;;;-0.60;99.90;;;;;;4157405;28;20263;-63
2021/04/10 01:52:31;;;;;;;27.43;13.93;;;-0.60;99.90;;;;;;4158470;28;20266;-64
2021/04/10 01:54:33;;;;;;;31.83;14.57;;;-0.60;99.90;;;;;;4156900;28;20364;-66
2021/04/10 01:56:38;;;;;;;28.43;13.17;;;-0.60;99.90;;;;;;4157920;28;20271;-63
2021/04/10 01:58:42;;;;;;;30.47;13.03;;;-0.50;99.90;;;;;;4157632;28;20827;-64
2021/04/10 02:00:45;;;;;;;27.17;13.63;;;-0.50;99.90;;;;;;4157252;28;20733;-66
2021/04/10 02:02:47;;;;;;;30.77;12.80;;;-0.50;99.90;;;;;;4157101;28;20255;-67
2021/04/10 02:04:50;;;;;;;26.90;12.90;;;-0.50;99.90;;;;;;4156709;28;20282;-65
2021/04/10 02:06:53;;;;;;;31.43;14.60;;;-0.50;99.90;;;;;;4158029;28;20270;-64
2021/04/10 02:08:56;;;;;;;31.63;14.93;;;-0.50;99.90;;;;;;4156954;28;20263;-65
2021/04/10 02:11:00;;;;;;;33.87;16.60;;;-0.60;99.90;;;;;;4158004;28;20274;-65
2021/04/10 02:13:02;;;;;;;42.87;22.73;;;-0.60;99.90;;;;;;4156928;28;20328;-64
2021/04/10 02:15:05;;;;;;;38.17;21.57;;;-0.60;99.90;;;;;;4158225;28;20356;-64
2021/04/10 02:17:07;;;;;;;40.00;19.87;;;-0.60;99.90;;;;;;4156671;28;20263;-72
2021/04/10 02:19:09;;;;;;;39.13;18.83;;;-0.60;99.90;;;;;;4158419;28;20675;-65
2021/04/10 02:21:11;;;;;;;31.77;17.37;;;-0.60;99.90;;;;;;4156395;28;20731;-70
2021/04/10 02:23:14;;;;;;;35.53;17.67;;;-0.60;99.90;;;;;;4157681;28;20320;-65
2021/04/10 02:25:15;;;;;;;29.20;15.83;;;-0.70;99.90;;;;;;4157137;28;20313;-68
2021/04/10 02:27:16;;;;;;;31.23;14.90;;;-0.70;99.90;;;;;;4158344;28;20346;-67
2021/04/10 02:29:18;;;;;;;23.27;12.60;;;-0.80;99.90;;;;;;4156799;28;20309;-67
2021/04/10 02:31:29;;;;;;;23.07;10.93;;;-0.80;99.90;;;;;;4157410;28;20255;-64
2021/04/10 02:33:40;;;;;;;22.40;11.83;;;-0.80;99.90;;;;;;4155237;28;20275;-65
2021/04/10 02:35:48;;;;;;;22.73;11.23;;;-0.80;99.90;;;;;;4156282;28;20328;-64
2021/04/10 02:37:50;;;;;;;21.27;11.17;;;-0.80;99.90;;;;;;4156408;28;20033;-64
2021/04/10 02:39:51;;;;;;;22.30;11.27;;;-0.80;99.90;;;;;;4157842;28;20747;-71
2021/04/10 02:41:55;;;;;;;21.50;10.20;;;-0.80;99.90;;;;;;4157129;28;20356;-71
2021/04/10 02:44:02;;;;;;;22.47;11.17;;;-0.80;99.90;;;;;;4156797;28;20333;-64
2021/04/10 02:46:04;;;;;;;26.13;10.10;;;-0.80;99.90;;;;;;4156330;28;21054;-64
2021/04/10 02:48:08;;;;;;;28.20;11.83;;;-0.80;99.90;;;;;;4156399;28;20287;-64
2021/04/10 02:50:11;;;;;;;24.40;11.67;;;-0.80;99.90;;;;;;4157568;28;20266;-64
2021/04/10 02:52:12;;;;;;;26.10;11.57;;;-0.90;99.90;;;;;;4156655;28;21058;-65
2021/04/10 02:54:18;;;;;;;33.37;13.20;;;-1.00;99.90;;;;;;4157682;28;20777;-65
2021/04/10 02:56:24;;;;;;;30.90;13.20;;;-1.10;99.90;;;;;;4156383;28;20283;-64
2021/04/10 02:58:28;;;;;;;25.73;11.47;;;-1.20;99.90;;;;;;4157653;28;20278;-64
2021/04/10 03:00:31;;;;;;;31.83;12.97;;;-1.20;99.90;;;;;;4156634;28;20267;-67
2021/04/10 03:02:35;;;;;;;27.60;11.83;;;-1.20;99.90;;;;;;4157821;28;20263;-63
2021/04/10 03:04:39;;;;;;;33.83;13.23;;;-1.30;99.90;;;;;;4156298;28;20716;-66
2021/04/10 03:06:42;;;;;;;28.50;12.50;;;-1.20;99.90;;;;;;4157106;28;20271;-64
2021/04/10 03:08:47;;;;;;;30.50;13.00;;;-1.30;99.90;;;;;;4156131;28;20828;-64
2021/04/10 03:10:52;;;;;;;21.87;10.47;;;-1.30;99.90;;;;;;4157410;28;20274;-66
2021/04/10 03:12:55;;;;;;;23.20;10.00;;;-1.30;99.90;;;;;;4155934;28;20259;-63
2021/04/10 03:14:57;;;;;;;19.60;10.93;;;-1.30;99.90;;;;;;4157188;28;20356;-67
2021/04/10 03:17:00;;;;;;;26.53;11.77;;;-1.30;99.90;;;;;;4156288;28;20279;-64
2021/04/10 03:19:05;;;;;;;26.60;12.50;;;-1.40;99.90;;;;;;4157713;28;20654;-64
2021/04/10 03:21:08;;;;;;;23.20;11.13;;;-1.50;99.90;;;;;;4156722;28;20258;-68
2021/04/10 03:23:10;;;;;;;30.27;13.53;;;-1.50;99.90;;;;;;4156891;28;20274;-70
2021/04/10 03:25:13;;;;;;;28.07;14.47;;;-1.60;99.90;;;;;;4156614;28;20739;-64
2021/04/10 03:27:14;;;;;;;32.87;15.70;;;-1.70;99.90;;;;;;4156411;28;20309;-64
2021/04/10 03:29:16;;;;;;;28.93;15.47;;;-1.70;99.90;;;;;;4156886;28;20314;-64
2021/04/10 03:31:18;;;;;;;23.23;12.50;;;-1.80;99.90;;;;;;4156559;28;20363;-71
2021/04/10 03:33:19;;;;;;;24.53;13.63;;;-1.80;99.90;;;;;;4156701;28;20287;-64
2021/04/10 03:35:26;;;;;;;27.03;13.73;;;-1.80;99.90;;;;;;4156339;28;20302;-69
2021/04/10 03:37:29;;;;;;;36.63;14.43;;;-1.90;99.90;;;;;;4157017;28;20282;-65
2021/04/10 03:39:31;;;;;;;26.27;13.57;;;-1.90;99.90;;;;;;4156438;28;20290;-64
2021/04/10 03:41:32;;;;;;;32.33;13.87;;;-1.90;99.90;;;;;;4157199;28;20329;-63
2021/04/10 03:43:33;;;;;;;30.07;13.97;;;-1.90;99.90;;;;;;4155945;28;20275;-67
2021/04/10 03:45:35;;;;;;;29.83;14.97;;;-2.00;99.90;;;;;;4157637;28;20278;-62
2021/04/10 03:47:36;;;;;;;33.63;14.70;;;-2.00;99.90;;;;;;4158410;28;20287;-64
2021/04/10 03:49:37;;;;;;;29.47;14.00;;;-2.00;99.90;;;;;;4160370;28;20275;-65
2021/04/10 03:51:38;;;;;;;25.10;13.37;;;-2.00;99.90;;;;;;4159521;28;20341;-64
2021/04/10 03:53:39;;;;;;;28.73;14.33;;;-2.00;99.90;;;;;;4160196;28;20297;-64
2021/04/10 03:55:41;;;;;;;30.93;14.33;;;-2.10;99.90;;;;;;4158801;28;21139;-66
2021/04/10 03:57:42;;;;;;;28.87;14.67;;;-2.10;99.90;;;;;;4159933;28;20279;-65
2021/04/10 03:59:43;;;;;;;29.63;14.50;;;-2.10;99.90;;;;;;4159184;28;21206;-65
2021/04/10 04:01:44;;;;;;;32.17;13.90;;;-2.00;99.90;;;;;;4159450;28;20320;-64
2021/04/10 04:03:45;;;;;;;35.77;14.50;;;-2.00;99.90;;;;;;4159285;28;20665;-65
2021/04/10 04:05:46;;;;;;;36.23;14.63;;;-1.90;99.90;;;;;;4158639;28;20328;-64
2021/04/10 04:07:49;;;;;;;34.77;16.83;;;-1.70;99.90;;;;;;4159290;28;20687;-65
2021/04/10 04:09:50;;;;;;;35.77;15.53;;;-1.50;99.90;;;;;;4158995;28;20267;-64
2021/04/10 04:11:52;;;;;;;33.97;15.77;;;-1.10;99.90;;;;;;4159583;28;20336;-63
2021/04/10 04:13:53;;;;;;;33.83;15.87;;;-0.90;99.90;;;;;;4158848;28;20267;-62
2021/04/10 04:15:54;;;;;;;33.17;15.53;;;-0.70;99.90;;;;;;4158556;28;20309;-64
2021/04/10 04:17:56;;;;;;;31.80;16.03;;;-0.40;99.90;;;;;;4158458;28;20270;-64
2021/04/10 04:19:57;;;;;;;38.87;18.67;;;0.00;99.90;;;;;;4159838;28;20746;-64
2021/04/10 04:21:59;;;;;;;31.60;16.63;;;0.30;99.90;;;;;;4158569;28;20366;-68
2021/04/10 04:24:00;;;;;;;35.47;17.33;;;0.60;99.90;;;;;;4159795;28;20258;-63
2021/04/10 04:26:01;;;;;;;35.37;17.87;;;0.90;99.90;;;;;;4158683;28;20675;-63
2021/04/10 04:28:03;;;;;;;33.43;16.77;;;1.20;99.90;;;;;;4159709;28;20279;-63
2021/04/10 04:30:05;;;;;;;27.30;15.07;;;1.70;99.90;;;;;;4158706;28;20239;-62
2021/04/10 04:32:06;;;;;;;38.03;17.33;;;2.00;99.90;;;;;;4158282;28;20313;-65
2021/04/10 04:34:08;;;;;;;40.87;19.10;;;2.40;99.90;;;;;;4157751;28;20271;-63
2021/04/10 04:36:09;;;;;;;42.33;20.07;;;2.70;99.90;;;;;;4158401;28;20258;-64
2021/04/10 04:38:10;;;;;;;60.10;27.53;;;3.10;99.90;;;;;;4159404;28;20321;-65
2021/04/10 04:40:12;;;;;;;43.67;19.43;;;3.50;99.90;;;;;;4158152;28;20321;-66
2021/04/10 04:42:13;;;;;;;35.77;19.13;;;4.00;99.90;;;;;;4159405;28;20734;-69
2021/04/10 04:44:14;;;;;;;47.73;20.77;;;4.50;99.90;;;;;;4158163;28;20324;-64
2021/04/10 04:46:16;;;;;;;38.77;18.40;;;4.80;99.90;;;;;;4159452;28;20782;-64
2021/04/10 04:48:17;;;;;;;44.23;19.43;;;4.70;99.60;;;;;;4155748;28;20688;-67
2021/04/10 04:50:18;;;;;;;40.73;17.17;;;5.00;99.70;;;;;;4158960;28;20271;-65
2021/04/10 04:52:19;;;;;;;35.27;16.47;;;5.40;98.50;;;;;;4157515;28;20712;-67
2021/04/10 04:54:20;;;;;;;38.27;16.37;;;5.60;97.80;;;;;;4158982;28;20328;-69
2021/04/10 04:56:22;;;;;;;38.70;17.13;;;5.90;97.20;;;;;;4156864;28;20336;-65
2021/04/10 04:58:23;;;;;;;35.23;16.93;;;6.20;96.00;;;;;;4157564;28;20615;-71
2021/04/10 05:00:24;;;;;;;39.97;16.97;;;6.20;94.70;;;;;;4157096;28;20275;-64
2021/04/10 05:02:25;;;;;;;30.73;15.97;;;6.40;94.20;;;;;;4157134;28;20826;-70
2021/04/10 05:04:27;;;;;;;34.60;17.03;;;6.60;94.30;;;;;;4157638;28;20336;-63
2021/04/10 05:06:28;;;;;;;36.17;18.47;;;6.90;93.00;;;;;;4157250;28;20283;-63
2021/04/10 05:08:29;;;;;;;30.37;16.17;;;7.50;92.30;;;;;;4158087;28;20659;-64
2021/04/10 05:10:30;;;;;;;37.47;17.47;;;7.80;90.80;;;;;;4156765;28;20037;-63
2021/04/10 05:12:31;;;;;;;35.50;16.10;;;8.00;89.30;;;;;;4158038;28;20431;-72
2021/04/10 05:14:32;;;;;;;32.10;15.90;;;7.80;87.10;;;;;;4156609;28;20038;-71
2021/04/10 05:16:33;;;;;;;32.83;14.87;;;7.50;87.10;;;;;;4157965;28;20030;-67
2021/04/10 05:18:34;;;;;;;31.00;15.27;;;7.30;86.70;;;;;;4156853;28;20053;-69
2021/04/10 05:20:35;;;;;;;35.33;16.77;;;6.90;84.90;;;;;;4158221;28;20049;-65
2021/04/10 05:22:36;;;;;;;30.67;15.47;;;6.30;85.70;;;;;;4156545;28;20041;-63
2021/04/10 05:24:38;;;;;;;37.80;17.20;;;6.00;86.20;;;;;;4157685;28;20452;-68
2021/04/10 05:26:39;;;;;;;29.77;14.43;;;5.90;88.00;;;;;;4156234;28;20448;-70
2021/04/10 05:28:40;;;;;;;35.83;14.70;;;6.10;88.10;;;;;;4154975;28;20135;-65
2021/04/10 05:30:41;;;;;;;31.17;15.30;;;5.70;87.40;;;;;;4156299;28;20522;-65
2021/04/10 05:32:42;;;;;;;32.93;15.83;;;6.10;88.80;;;;;;4156622;28;20045;-62
2021/04/10 05:34:43;;;;;;;34.33;17.07;;;6.60;87.10;;;;;;4157418;28;20053;-63
2021/04/10 05:36:46;;;;;;;40.23;18.07;;;6.70;84.30;;;;;;4155945;28;20080;-67
2021/04/10 05:38:47;;;;;;;34.23;17.43;;;6.90;84.20;;;;;;4156983;28;20793;-64
2021/04/10 05:40:48;;;;;;;32.40;18.97;;;7.00;82.90;;;;;;4155503;28;20033;-71
2021/04/10 05:42:49;;;;;;;25.80;16.67;;;7.50;82.60;;;;;;4157213;28;20037;-63
2021/04/10 05:44:50;;;;;;;29.43;16.90;;;7.50;78.80;;;;;;4156364;28;20037;-63
2021/04/10 05:46:51;;;;;;;38.77;20.70;;;7.60;77.60;;;;;;4157260;28;20030;-64
2021/04/10 05:48:52;;;;;;;38.80;22.13;;;7.60;76.90;;;;;;4156439;28;20045;-64
2021/04/10 05:50:54;;;;;;;32.20;18.57;;;7.60;77.50;;;;;;4157995;28;20103;-64
2021/04/10 05:52:55;;;;;;;35.80;18.87;;;7.80;77.00;;;;;;4155796;28;20084;-69
2021/04/10 05:54:56;;;;;;;32.37;17.53;;;7.90;76.00;;;;;;4156477;28;20025;-68
2021/04/10 05:56:57;;;;;;;27.47;15.67;;;7.70;75.80;;;;;;4156011;28;20468;-65
2021/04/10 05:58:58;;;;;;;25.97;14.77;;;7.20;76.70;;;;;;4156234;28;20033;-64
2021/04/10 06:00:59;;;;;;;28.80;15.67;;;7.40;77.50;;;;;;4157027;28;20524;-61
2021/04/10 06:03:00;;;;;;;26.83;14.90;;;7.00;77.80;;;;;;4156543;28;20033;-66
2021/04/10 06:05:02;;;;;;;48.13;14.97;;;7.20;78.30;;;;;;4156694;28;20211;-68
2021/04/10 06:07:04;;;;;;;34.07;14.80;;;7.30;78.50;;;;;;4155809;28;20099;-64
2021/04/10 06:09:05;;;;;;;30.43;14.20;;;7.30;78.20;;;;;;4156494;28;20025;-63
2021/04/10 06:11:06;;;;;;;28.60;14.63;;;7.30;77.80;;;;;;4156111;28;20041;-70
2021/04/10 06:13:08;;;;;;;23.93;13.40;;;6.90;78.80;;;;;;4157213;28;20037;-65
2021/04/10 06:15:10;;;;;;;26.13;14.30;;;6.70;79.70;;;;;;4141618;28;20097;-63
2021/04/10 06:17:11;;;;;;;28.07;14.73;;;6.50;80.30;;;;;;4141146;28;20575;-65
2021/04/10 06:19:13;;;;;;;30.03;15.20;;;6.00;81.40;;;;;;4152345;28;20095;-64
2021/04/10 06:21:14;;;;;;;25.50;13.70;;;5.70;83.10;;;;;;4157380;28;20424;-63
2021/04/10 06:23:15;;;;;;;26.97;14.43;;;5.30;84.60;;;;;;4155877;28;20103;-63
2021/04/10 06:25:17;;;;;;;24.17;14.70;;;5.20;85.60;;;;;;4156957;28;20270;-65
2021/04/10 06:27:18;;;;;;;23.37;13.53;;;6.00;85.60;;;;;;4155707;28;20246;-64
2021/04/10 06:29:19;;;;;;;20.97;12.17;;;6.50;82.50;;;;;;4157393;28;20309;-62
2021/04/10 06:31:20;;;;;;;21.47;12.67;;;6.70;81.40;;;;;;4156579;28;20259;-64
2021/04/10 06:33:23;;;;;;;21.90;12.63;;;6.70;81.10;;;;;;4156633;28;20329;-65
2021/04/10 06:35:24;;;;;;;22.00;12.30;;;6.40;81.20;;;;;;4156432;28;20803;-63
2021/04/10 06:37:26;;;;;;;23.80;13.40;;;6.20;82.40;;;;;;4155346;28;20271;-64
2021/04/10 06:39:27;;;;;;;20.47;11.03;;;5.80;83.80;;;;;;4156916;28;20263;-68
2021/04/10 06:41:29;;;;;;;26.07;10.27;;;5.80;83.80;;;;;;4155781;28;20276;-63
2021/04/10 06:43:30;;;;;;;20.00;10.80;;;5.60;82.90;;;;;;4156735;28;20270;-66
2021/04/10 06:45:31;;;;;;;20.50;11.47;;;5.40;83.30;;;;;;4155774;28;20329;-66
2021/04/10 06:47:34;;;;;;;18.57;10.67;;;5.30;84.50;;;;;;4157300;28;20143;-68
2021/04/10 06:49:37;;;;;;;19.67;10.67;;;5.40;85.10;;;;;;4156565;28;20301;-64
2021/04/10 06:51:39;;;;;;;20.87;10.90;;;5.50;84.80;;;;;;4157361;28;20280;-61
2021/04/10 06:53:46;;;;;;;23.53;13.20;;;5.60;84.10;;;;;;4155852;28;20293;-66
2021/04/10 06:55:52;;;;;;;22.27;12.23;;;5.90;83.70;;;;;;4156490;28;20313;-63
2021/04/10 06:58:08;;;;;;;19.97;11.90;;;6.00;83.20;;;;;;4155143;28;20336;-63
2021/04/10 07:00:10;;;;;;;21.73;12.83;;;6.40;81.60;;;;;;4157097;28;20753;-63
2021/04/10 07:02:14;;;;;;;21.10;12.77;;;6.90;80.90;;;;;;4155843;28;20346;-63
2021/04/10 07:04:15;;;;;;;22.33;13.33;;;7.20;79.20;;;;;;4157003;28;20338;-63
2021/04/10 07:06:17;;;;;;;27.37;13.00;;;7.30;78.90;;;;;;4155667;28;20313;-66
2021/04/10 07:08:23;;;;;;;27.13;13.30;;;7.20;79.40;;;;;;4156559;28;20270;-62
2021/04/10 07:10:24;;;;;;;22.83;12.23;;;7.40;80.00;;;;;;4155760;28;20271;-64
2021/04/10 07:12:25;;;;;;;25.67;13.30;;;7.50;79.40;;;;;;4156336;28;20669;-66
2021/04/10 07:14:26;;;;;;;23.37;12.40;;;7.40;79.50;;;;;;4156124;28;20739;-61
2021/04/10 07:16:37;;;;;;;22.17;12.40;;;7.30;80.20;;;;;;4155735;28;20294;-60
2021/04/10 07:18:38;;;;;;;19.63;11.05;;;7.50;80.70;;;;;;4156199;28;20255;-61
2021/04/10 07:20:39;;;;;;;21.23;11.20;;;7.50;80.90;;;;;;4155557;28;20037;-62
2021/04/10 07:22:56;;;;;;;19.03;11.10;;;7.70;80.00;;;;;;4160277;28;20120;-62
2021/04/10 07:24:57;;;;;;;20.60;11.77;;;7.70;80.10;;;;;;4158544;28;20021;-62
2021/04/10 07:27:00;;;;;;;18.40;10.53;;;7.70;80.30;;;;;;4159784;28;20798;-64
2021/04/10 07:29:01;;;;;;;20.37;10.67;;;7.80;80.20;;;;;;4158787;28;20029;-66
2021/04/10 07:31:05;;;;;;;26.37;11.67;;;8.20;79.80;;;;;;4160108;28;20037;-63
2021/04/10 07:33:06;;;;;;;26.03;12.03;;;8.40;78.80;;;;;;4158443;28;20489;-63
2021/04/10 07:35:10;;;;;;;18.47;10.57;;;8.10;78.90;;;;;;4159259;28;20041;-62
2021/04/10 07:37:11;;;;;;;18.30;10.57;;;8.20;79.00;;;;;;4157014;28;20088;-68
2021/04/10 07:39:12;;;;;;;18.73;10.33;;;8.30;79.00;;;;;;4160249;28;20076;-63
2021/04/10 07:41:13;;;;;;;17.10;10.37;;;8.20;79.20;;;;;;4158795;28;20084;-64
2021/04/10 07:43:25;;;;;;;15.73;11.27;;;8.30;79.50;;;;;;4159828;28;20091;-68
2021/04/10 07:45:34;;;;;;;19.33;10.83;;;8.50;79.30;;;;;;4158319;28;20099;-64
2021/04/10 07:47:39;;;;;;;17.73;10.20;;;8.70;78.90;;;;;;4159344;28;20037;-62
2021/04/10 07:49:40;;;;;;;14.67;8.97;;;9.00;78.80;;;;;;4159273;28;20053;-65
2021/04/10 07:51:56;;;;;;;21.43;10.50;;;9.00;78.00;;;;;;4159723;28;20413;-64
2021/04/10 07:53:59;;;;;;;16.57;9.30;;;9.00;77.30;;;;;;4158418;28;20033;-63
2021/04/10 07:56:01;;;;;;;20.13;9.67;;;8.90;77.30;;;;;;4159653;28;20042;-67
2021/04/10 07:58:26;;;;;;;15.77;9.30;;;8.90;77.20;;;;;;4158858;28;20065;-66
2021/04/10 08:00:41;;;;;;;20.90;10.10;;;9.00;75.90;;;;;;4158210;28;20056;-63
2021/04/10 08:02:42;;;;;;;14.07;7.27;;;9.30;76.00;;;;;;4157141;28;20033;-64
2021/04/10 08:05:07;;;;;;;10.83;5.67;;;9.60;74.60;;;;;;4158385;28;20025;-63
2021/04/10 08:07:11;;;;;;;7.80;5.27;;;9.70;70.30;;;;;;4157849;28;20119;-64
2021/04/10 08:09:27;;;;;;;8.47;4.77;;;9.70;71.20;;;;;;4159250;28;20104;-64
2021/04/10 08:11:42;;;;;;;11.43;4.97;;;9.70;70.30;;;;;;4157837;28;20095;-64
2021/04/10 08:14:07;;;;;;;9.03;4.43;;;9.80;68.50;;;;;;4158828;28;20033;-63
2021/04/10 08:16:15;;;;;;;9.57;4.20;;;9.80;67.20;;;;;;4157719;28;20440;-65
2021/04/10 08:18:23;;;;;;;7.43;4.53;;;9.60;67.50;;;;;;4159068;28;20037;-64
2021/04/10 08:20:26;;;;;;;9.47;4.83;;;9.70;67.40;;;;;;4157238;28;20045;-66
2021/04/10 08:22:27;;;;;;;8.43;4.23;;;9.70;67.50;;;;;;4159410;28;20029;-69
2021/04/10 08:24:34;;;;;;;8.10;5.10;;;9.90;67.40;;;;;;4157209;28;20578;-63
2021/04/10 08:26:35;;;;;;;9.73;4.43;;;10.10;66.50;;;;;;4159053;28;20025;-62
2021/04/10 08:28:37;;;;;;;8.10;4.50;;;10.00;65.60;;;;;;4157817;28;20033;-61
2021/04/10 08:30:38;;;;;;;9.10;4.80;;;10.00;65.90;;;;;;4159136;28;20041;-69
2021/04/10 08:32:39;;;;;;;8.90;4.80;;;10.00;65.70;;;;;;4157639;28;20026;-63
2021/04/10 08:34:41;;;;;;;9.40;5.23;;;10.00;65.40;;;;;;4158542;28;20033;-66
2021/04/10 08:36:52;;;;;;;9.03;5.33;;;10.00;65.40;;;;;;4157972;28;20041;-63
2021/04/10 08:38:53;;;;;;;8.85;4.72;;;10.10;65.10;;;;;;4157527;28;20067;-66
2021/04/10 08:40:57;;;;;;;7.33;4.87;;;10.20;65.00;;;;;;4157980;28;20091;-62
2021/04/10 08:42:59;;;;;;;10.77;5.20;;;10.10;64.40;;;;;;4157023;28;20037;-69
2021/04/10 08:45:01;;;;;;;7.07;4.93;;;10.30;64.40;;;;;;4158431;28;20087;-63
2021/04/10 08:47:04;;;;;;;9.63;5.40;;;10.30;63.80;;;;;;4157186;28;20466;-63
2021/04/10 08:49:06;;;;;;;11.33;5.50;;;10.50;64.40;;;;;;4158321;28;20046;-66
2021/04/10 08:51:08;;;;;;;9.77;5.87;;;10.50;63.90;;;;;;4157661;28;20075;-63
2021/04/10 08:53:14;;;;;;;8.73;5.97;;;10.50;63.60;;;;;;4158448;28;20678;-63
2021/04/10 08:55:15;;;;;;;9.20;5.43;;;10.40;64.00;;;;;;4156917;28;20102;-63
2021/04/10 08:57:17;;;;;;;8.30;5.80;;;10.60;63.90;;;;;;4158271;28;20037;-63
2021/04/10 08:59:20;;;;;;;10.63;6.47;;;10.70;63.80;;;;;;4157014;28;20423;-63
2021/04/10 09:01:26;;;;;;;9.03;5.77;;;10.70;63.40;;;;;;4158155;28;20026;-63
2021/04/10 09:03:45;;;;;;;9.80;5.90;;;10.90;63.70;;;;;;4157035;28;20472;-63
2021/04/10 09:05:52;;;;;;;10.13;5.83;;;10.90;62.00;;;;;;4157869;28;20056;-63
2021/04/10 09:07:53;;;;;;;14.27;6.17;;;11.00;62.50;;;;;;4157221;28;20087;-70
2021/04/10 09:09:54;;;;;;;11.10;5.27;;;11.00;61.80;;;;;;4158374;28;20030;-62
2021/04/10 09:12:19;;;;;;;9.80;6.17;;;11.10;61.60;;;;;;4156979;28;20025;-64
2021/04/10 09:14:43;;;;;;;8.37;5.00;;;11.20;60.90;;;;;;4158059;28;20071;-62
2021/04/10 09:16:49;;;;;;;12.17;5.70;;;11.20;60.70;;;;;;4156796;28;20163;-65
2021/04/10 09:18:55;;;;;;;11.57;5.50;;;11.40;60.00;;;;;;4158914;28;20041;-62
2021/04/10 09:21:07;;;;;;;10.37;5.20;;;11.50;59.20;;;;;;4157687;28;20355;-62
2021/04/10 09:23:17;;;;;;;10.77;5.77;;;11.80;59.40;;;;;;4158242;28;20628;-64
2021/04/10 09:25:28;;;;;;;10.20;5.63;;;11.90;58.70;;;;;;4157306;28;20045;-63
2021/04/10 09:27:29;;;;;;;;;;;12.00;57.80;;;;;;4158686;28;20045;-63
2021/04/10 09:29:44;;;;;;;13.13;5.83;;;12.10;57.40;;;;;;4156953;28;20651;-63
2021/04/10 09:31:51;;;;;;;9.87;5.20;;;11.90;57.60;;;;;;4157807;28;20419;-66
2021/04/10 09:33:52;;;;;;;11.87;5.43;;;12.00;57.50;;;;;;4156560;28;20018;-63
2021/04/10 09:35:53;;;;;;;13.27;5.87;;;12.00;57.50;;;;;;4157885;28;20099;-68
2021/04/10 09:37:55;;;;;;;9.47;5.67;;;12.10;57.20;;;;;;4156751;28;20041;-65
2021/04/10 09:40:09;;;;;;;10.60;5.60;;;12.20;56.50;;;;;;4157793;28;20091;-63
2021/04/10 09:42:10;;;;;;;14.50;5.80;;;12.10;56.30;;;;;;4156282;28;20029;-63
2021/04/10 09:44:11;;;;;;;9.80;5.17;;;12.20;55.90;;;;;;4156864;28;20042;-63
2021/04/10 09:46:52;;;;;;;10.27;5.47;;;12.30;55.20;;;;;;4156897;28;20041;-64
2021/04/10 09:48:53;;;;;;;10.47;4.97;;;12.30;52.30;;;;;;4154116;28;20070;-64
2021/04/10 09:50:54;;;;;;;10.57;5.10;;;12.50;54.30;;;;;;4156746;28;20029;-66
2021/04/10 09:53:02;;;;;;;7.47;4.63;;;12.60;54.40;;;;;;4156344;28;20037;-65
2021/04/10 09:55:03;;;;;;;8.43;5.47;;;12.60;54.00;;;;;;4156842;28;20091;-64
2021/04/10 09:57:16;;;;;;;9.73;5.27;;;12.80;53.70;;;;;;4156874;28;20095;-66
2021/04/10 09:59:17;;;;;;;9.23;4.90;;;12.90;52.60;;;;;;4154402;28;20524;-65
2021/04/10 10:01:21;;;;;;;9.70;5.50;;;12.80;52.70;;;;;;4157130;28;20083;-61
2021/04/10 10:03:24;;;;;;;19.03;9.57;;;12.70;52.40;;;;;;4157087;28;20092;-60
2021/04/10 10:05:37;;;;;;;10.20;5.00;;;12.70;53.00;;;;;;4154829;28;20033;-61
2021/04/10 10:07:38;;;;;;;8.07;5.07;;;12.70;52.50;;;;;;4156862;28;20080;-61
2021/04/10 10:09:41;;;;;;;12.00;4.63;;;12.60;51.90;;;;;;4156436;28;20033;-62
2021/04/10 10:11:52;;;;;;;10.63;5.17;;;12.60;51.30;;;;;;4157002;28;20037;-61
2021/04/10 10:13:56;;;;;;;25.53;11.33;;;12.70;51.60;;;;;;4156012;28;20045;-61
2021/04/10 10:15:58;;;;;;;12.20;6.20;;;12.70;51.80;;;;;;4156122;28;20144;-63
2021/04/10 10:18:15;;;;;;;15.60;8.17;;;12.60;51.00;;;;;;4156132;28;20087;-63
2021/04/10 10:20:18;;;;;;;8.07;5.47;;;12.60;51.30;;;;;;4156688;28;20062;-63
2021/04/10 10:22:26;;;;;;;28.27;12.60;;;12.60;51.40;;;;;;4156393;28;20037;-62
2021/04/10 10:24:27;;;;;;;10.13;5.10;;;12.70;51.10;;;;;;4157382;28;20458;-62
2021/04/10 10:26:42;;;;;;;9.97;5.10;;;12.90;51.50;;;;;;4156357;28;20378;-62
2021/04/10 10:29:04;;;;;;;7.00;4.80;;;13.00;51.00;;;;;;4156622;28;20397;-63
2021/04/10 10:31:10;;;;;;;16.07;8.33;;;13.00;51.10;;;;;;4155569;28;20072;-61
2021/04/10 10:33:12;;;;;;;8.37;4.67;;;13.20;50.80;;;;;;4157080;28;20462;-63
2021/04/10 10:35:17;;;;;;;7.77;5.23;;;13.20;50.90;;;;;;4155921;28;20025;-61